Bellville, Ohio
Current Conditions -  °F | °C
As of 11:52 PM on Saturday 25 Oct 2014 (Local Time) from KMFD Reporting Station
Clear Clear  
Wind Chill: 53°   Ceiling: Unl
Heat Index: 53°   Visibility: 10mi
Dew Point: 33°   Wind: 7mph
Humidity: 47%   Direction: 270°W
Pressure: 29.86"   Gusts: NA
Location:  40.62°N, 82.51°W
Report Text: KMFD 260352Z 27006KT 10SM CLR 12/01 A2986 RMK AO2 SLP110 T01170006
Loading
Personal Weather Stations






























Interactive Weather Map
Tropical Storm Tracking
New forecast layout! Learn more

10-Day Weather Forecast

Advertisements
Track Severe Weather on mobile